Northeast Alabama Rgnl Information

FAA: GAD - ICAO: KGAD

Northeast Alabama Rgnl (Airport) Location

State Alabama
County Etowah
City Gadsden
Northeast Alabama Rgnl (Airport) is 4 miles southwest of Gadsden, AL.
Latitude 33-58-21.5359N
Longitude 086-05-20.7004W
Elevation 569ft

Northeast Alabama Rgnl METARs

METAR KGAD 191056Z AUTO 00000KT 10SM CLR 18/18 A2992 RMK AO2 SLP130 T01780178 $
Altimeter 29.92"
Temperature 17.8°C (64.0°F)
Wind 0° at 0KT
Clouds Skies are clear.
Visibility 10.0mi
Time observed: 2022-05-19T10:56:00Z

Northeast Alabama Rgnl (Airport) Details

Status Operational
Activation January 1944
Ownership Public
Usage Public
Chart ATLANTA
ATC on-site No
Beacon schedule sunset-sunrise
Beacon color clear green

Northeast Alabama Rgnl (Airport) Contacts

Owner GADSDEN AIRPORT AUTHORITY
Owner address 185 IRA GRAY DR., GADSDEN, AL 35904
Owner phone 256-442-3313
Manager RANDALL GOBER
Manager address 185 IRA GRAY DRIVE, GADSDEN, AL 35904
Manager phone 256-328-4700

Northeast Alabama Rgnl Radio Frequencies

Northeast Alabama Rgnl (Airport) Radio Frequencies

UNICOM 122.8
Common traffic advisory frequency (CTAF) 122.8